Time;durP1;ratioP1;P1;durP2;ratioP2;P2;SDS_P1;SDS_P2;PMS_P1;PMS_P2;Temp;Humidity;BMP_temperature;BMP_pressure;BME280_temperature;BME280_humidity;BME280_pressure;Samples;Min_cycle;Max_cycle;Signal;HPM_P1;HPM_P2
2023/06/18 00:01:29;;;;;;;11.8;7.1;;;;;;;13.53;63.55469;937.4827;;;;
2023/06/18 00:03:55;;;;;;;8.2;6.4;;;;;;;13.53;63.15137;937.5347;;;;
2023/06/18 00:06:20;;;;;;;8.8;6.8;;;;;;;13.41;62.44434;937.5211;;;;
2023/06/18 00:08:48;;;;;;;8.4;6.9;;;;;;;13.39;62.77441;937.5491;;;;
2023/06/18 00:11:13;;;;;;;9.9;6.6;;;;;;;13.49;62.61621;937.5028;;;;
2023/06/18 00:13:40;;;;;;;9;6.6;;;;;;;13.48;63.06445;937.5276;;;;
2023/06/18 00:16:05;;;;;;;12.1;7.1;;;;;;;13.42;63.5498;937.483;;;;
2023/06/18 00:18:31;;;;;;;10.6;6.9;;;;;;;13.14;64.95605;937.5179;;;;
2023/06/18 00:20:59;;;;;;;10.5;7;;;;;;;13.13;65.16113;937.5011;;;;
2023/06/18 00:23:21;;;;;;;11.6;7.2;;;;;;;13.19;64.80078;937.5349;;;;
2023/06/18 00:25:47;;;;;;;10.7;7.5;;;;;;;13.21;64.71289;937.5613;;;;
2023/06/18 00:28:12;;;;;;;9.2;7.4;;;;;;;13.24;64.40723;937.579;;;;
2023/06/18 00:30:38;;;;;;;10;7.3;;;;;;;13.15;64.57813;937.4931;;;;
2023/06/18 00:33:03;;;;;;;11.7;7.7;;;;;;;13.29;65.31055;937.5222;;;;
2023/06/18 00:35:30;;;;;;;11.9;7.3;;;;;;;13.29;63.86328;937.4278;;;;
2023/06/18 00:37:55;;;;;;;9.7;6.5;;;;;;;13.29;63.24219;937.5165;;;;
2023/06/18 00:40:23;;;;;;;7.9;6.5;;;;;;;13.26;63.18066;937.5142;;;;
2023/06/18 00:42:52;;;;;;;10;6.3;;;;;;;13.38;64.19824;937.4708;;;;
2023/06/18 00:45:13;;;;;;;8.9;6.6;;;;;;;13.14;63.34668;937.5339;;;;
2023/06/18 00:47:40;;;;;;;9.3;7.1;;;;;;;13.02;63.91504;937.5157;;;;
2023/06/18 00:50:05;;;;;;;12.1;7.7;;;;;;;12.84;64.86523;937.4741;;;;
2023/06/18 00:52:33;;;;;;;9.8;7.8;;;;;;;12.66;65.5498;937.469;;;;
2023/06/18 00:54:56;;;;;;;9.1;6.9;;;;;;;12.57;66.20117;937.4919;;;;
2023/06/18 00:57:21;;;;;;;10.9;7.6;;;;;;;12.52;65.99805;937.4822;;;;
2023/06/18 00:59:46;;;;;;;10.8;7.7;;;;;;;12.61;65.9873;937.483;;;;
2023/06/18 01:02:13;;;;;;;11.2;7.9;;;;;;;12.67;65.74609;937.4849;;;;
2023/06/18 01:04:38;;;;;;;10.4;7.8;;;;;;;12.83;65.5166;937.4356;;;;
2023/06/18 01:07:04;;;;;;;11.9;7.2;;;;;;;12.83;65.9873;937.4069;;;;
2023/06/18 01:09:29;;;;;;;9.3;7.1;;;;;;;12.84;66.17285;937.3861;;;;
2023/06/18 01:11:55;;;;;;;8.8;7;;;;;;;12.69;66.78223;937.3739;;;;
2023/06/18 01:14:21;;;;;;;9.1;7.4;;;;;;;12.78;66.53125;937.3362;;;;
2023/06/18 01:16:47;;;;;;;8.5;6.7;;;;;;;12.7;66.77148;937.286;;;;
2023/06/18 01:19:11;;;;;;;10.5;7.4;;;;;;;12.56;66.87598;937.3049;;;;
2023/06/18 01:21:36;;;;;;;8.4;7.1;;;;;;;12.56;67.13965;937.3209;;;;
2023/06/18 01:24:03;;;;;;;7.9;6.7;;;;;;;12.59;67.03027;937.3345;;;;
2023/06/18 01:26:27;;;;;;;9.1;6.6;;;;;;;12.67;66.88184;937.3572;;;;
2023/06/18 01:28:58;;;;;;;9.4;6.9;;;;;;;12.64;67.16309;937.322;;;;
2023/06/18 01:31:20;;;;;;;9;6.7;;;;;;;12.61;66.89453;937.3297;;;;
2023/06/18 01:33:45;;;;;;;9.7;6.9;;;;;;;12.57;67.05078;937.277;;;;
2023/06/18 01:36:11;;;;;;;8.5;6.7;;;;;;;12.51;67.51074;937.3176;;;;
2023/06/18 01:38:36;;;;;;;9.7;6.9;;;;;;;12.54;67.36719;937.2689;;;;
2023/06/18 01:41:01;;;;;;;8.2;6.6;;;;;;;12.48;67.45996;937.2689;;;;
2023/06/18 01:43:26;;;;;;;8.8;7;;;;;;;12.38;67.20508;937.3309;;;;
2023/06/18 01:45:52;;;;;;;8.2;6.7;;;;;;;12.32;67.51465;937.3268;;;;
2023/06/18 01:48:17;;;;;;;9.4;7.4;;;;;;;12.29;67.32715;937.2701;;;;
2023/06/18 01:50:42;;;;;;;8.9;7.3;;;;;;;12.3;67.43262;937.3005;;;;
2023/06/18 01:53:08;;;;;;;8.8;7;;;;;;;12.37;67.5459;937.275;;;;
2023/06/18 01:55:33;;;;;;;9.4;6.7;;;;;;;12.41;67.44824;937.2838;;;;
2023/06/18 01:57:58;;;;;;;8.7;6.6;;;;;;;12.31;66.79199;937.2047;;;;
2023/06/18 02:00:24;;;;;;;9.4;6.6;;;;;;;12.17;66.91895;937.296;;;;
2023/06/18 02:02:50;;;;;;;7.9;6.8;;;;;;;12.05;67.62305;937.2471;;;;
2023/06/18 02:05:15;;;;;;;8.2;7;;;;;;;12.13;67.85156;937.2656;;;;
2023/06/18 02:07:43;;;;;;;9.1;7.2;;;;;;;12.09;67.81348;937.2328;;;;
2023/06/18 02:10:08;;;;;;;10;7.1;;;;;;;12.04;67.59863;937.2701;;;;
2023/06/18 02:12:35;;;;;;;8.6;6.7;;;;;;;12.08;67.68555;937.248;;;;
2023/06/18 02:15:00;;;;;;;8.2;6.6;;;;;;;12.14;67.7627;937.2505;;;;
2023/06/18 02:17:26;;;;;;;8.8;7.3;;;;;;;12.07;68.23242;937.2416;;;;
2023/06/18 02:19:50;;;;;;;10;6.5;;;;;;;12.03;67.87207;937.3102;;;;
2023/06/18 02:22:16;;;;;;;9.2;7.2;;;;;;;12.22;67.63672;937.3451;;;;
2023/06/18 02:24:42;;;;;;;9;7;;;;;;;12.18;67.91895;937.3423;;;;
2023/06/18 02:27:08;;;;;;;9.3;7.5;;;;;;;12.25;68.14648;937.318;;;;
2023/06/18 02:29:33;;;;;;;9.2;7.2;;;;;;;12.24;68.22559;937.3491;;;;
2023/06/18 02:31:59;;;;;;;9.9;7.4;;;;;;;12.32;68.41992;937.3228;;;;
2023/06/18 02:34:27;;;;;;;9.1;7.1;;;;;;;12.19;68.68652;937.264;;;;
2023/06/18 02:36:49;;;;;;;8.5;6.7;;;;;;;12.13;68.98926;937.2584;;;;
2023/06/18 02:39:16;;;;;;;8.7;7.2;;;;;;;11.95;69.77051;937.2944;;;;
2023/06/18 02:41:40;;;;;;;10.4;7.4;;;;;;;11.79;70.18164;937.2881;;;;
2023/06/18 02:44:06;;;;;;;10.6;7.1;;;;;;;11.85;70.09961;937.2169;;;;
2023/06/18 02:46:31;;;;;;;10.6;6.9;;;;;;;11.86;70.13574;937.2056;;;;
2023/06/18 02:48:56;;;;;;;8.7;6.9;;;;;;;11.98;69.8916;937.2339;;;;
2023/06/18 02:51:21;;;;;;;11;7;;;;;;;11.98;69.78809;937.2434;;;;
2023/06/18 02:53:49;;;;;;;8.9;6.9;;;;;;;11.89;70.02539;937.2297;;;;
2023/06/18 02:56:14;;;;;;;8.5;7.1;;;;;;;11.88;70.31055;937.2089;;;;
2023/06/18 02:58:40;;;;;;;9.7;7.2;;;;;;;11.87;70.21777;937.165;;;;
2023/06/18 03:01:05;;;;;;;9.2;6.9;;;;;;;11.9;70.25781;937.2449;;;;
2023/06/18 03:03:34;;;;;;;10.4;7;;;;;;;11.8;70.6748;937.2324;;;;
2023/06/18 03:05:59;;;;;;;10.9;7.5;;;;;;;11.66;70.96094;937.2802;;;;
2023/06/18 03:08:26;;;;;;;9.5;7.1;;;;;;;11.71;70.39746;937.2717;;;;
2023/06/18 03:10:51;;;;;;;9.6;7.3;;;;;;;11.7;70.16797;937.3226;;;;
2023/06/18 03:13:16;;;;;;;9.2;7.3;;;;;;;11.71;70.27148;937.3019;;;;
2023/06/18 03:15:41;;;;;;;9.4;7.3;;;;;;;11.77;70.09863;937.3596;;;;
2023/06/18 03:18:08;;;;;;;9;6.8;;;;;;;11.76;70.39453;937.322;;;;
2023/06/18 03:20:34;;;;;;;11;7.1;;;;;;;11.72;70.42188;937.3705;;;;
2023/06/18 03:22:59;;;;;;;8.4;6.9;;;;;;;11.7;69.94922;937.3777;;;;
2023/06/18 03:25:25;;;;;;;9.6;7.4;;;;;;;11.72;70.1123;937.4256;;;;
2023/06/18 03:27:51;;;;;;;9.4;6.8;;;;;;;11.78;70.24805;937.3819;;;;
2023/06/18 03:30:16;;;;;;;9.3;7.1;;;;;;;11.8;70.49219;937.3934;;;;
2023/06/18 03:32:43;;;;;;;10.4;7.6;;;;;;;11.81;70.24121;937.3918;;;;
2023/06/18 03:35:08;;;;;;;11.6;7.7;;;;;;;11.9;69.92383;937.2744;;;;
2023/06/18 03:37:33;;;;;;;11.1;7.5;;;;;;;11.93;70.11133;937.2593;;;;
2023/06/18 03:39:58;;;;;;;8.7;6.8;;;;;;;11.97;70.02734;937.2706;;;;
2023/06/18 03:42:25;;;;;;;10.9;7.4;;;;;;;12.02;69.73828;937.2463;;;;
2023/06/18 03:44:50;;;;;;;8.8;6.8;;;;;;;11.93;70.2959;937.2146;;;;
2023/06/18 03:47:17;;;;;;;9.8;7.4;;;;;;;11.95;70.50391;937.2067;;;;
2023/06/18 03:49:41;;;;;;;9.2;7;;;;;;;11.78;71.02734;937.2503;;;;
2023/06/18 03:52:07;;;;;;;11.4;7.5;;;;;;;11.81;71.10156;937.259;;;;
2023/06/18 03:54:32;;;;;;;9.8;7.2;;;;;;;11.7;71.50586;937.3147;;;;
2023/06/18 03:56:57;;;;;;;9.9;7.1;;;;;;;11.73;71.62695;937.3132;;;;
2023/06/18 03:59:22;;;;;;;10.4;7.5;;;;;;;11.76;70.55371;937.326;;;;
2023/06/18 04:02:31;;;;;;;10.8;6.9;;;;;;;11.79;70.98145;937.3344;;;;
2023/06/18 04:04:56;;;;;;;10.1;7.6;;;;;;;11.81;70.94043;937.2978;;;;
2023/06/18 04:07:21;;;;;;;10.7;7.4;;;;;;;11.9;71.56348;937.359;;;;
2023/06/18 04:09:46;;;;;;;9.9;7;;;;;;;11.97;71.06836;937.2562;;;;
2023/06/18 04:12:11;;;;;;;9.4;6.9;;;;;;;11.96;71.28613;937.3016;;;;
2023/06/18 04:14:36;;;;;;;10;6.9;;;;;;;11.96;71.04492;937.2482;;;;
2023/06/18 04:17:04;;;;;;;9;7;;;;;;;11.93;70.76563;937.3064;;;;
2023/06/18 04:19:29;;;;;;;10.5;7.3;;;;;;;12.15;71.19238;937.3095;;;;
2023/06/18 04:21:55;;;;;;;11.8;7.1;;;;;;;12.34;69.96094;937.3276;;;;
2023/06/18 04:24:20;;;;;;;9.9;6.9;;;;;;;12.41;69.40918;937.3205;;;;
2023/06/18 04:26:47;;;;;;;7.9;6.7;;;;;;;12.4;69.51074;937.3405;;;;
2023/06/18 04:29:12;;;;;;;10;7;;;;;;;12.48;69.03027;937.368;;;;
2023/06/18 04:31:38;;;;;;;10.5;7.1;;;;;;;12.53;69.30176;937.3153;;;;
2023/06/18 04:34:03;;;;;;;9.5;7.1;;;;;;;12.56;69.83691;937.3528;;;;
2023/06/18 04:36:28;;;;;;;10.2;7.5;;;;;;;12.55;69.11133;937.3464;;;;
2023/06/18 04:38:54;;;;;;;10.5;7.4;;;;;;;12.66;69.35742;937.3356;;;;
2023/06/18 04:41:20;;;;;;;10.5;7.5;;;;;;;12.69;69.32813;937.3132;;;;
2023/06/18 04:43:45;;;;;;;9;6.5;;;;;;;12.72;68.96582;937.3244;;;;
2023/06/18 04:46:12;;;;;;;9.2;7;;;;;;;12.69;69.41992;937.3036;;;;
2023/06/18 04:48:37;;;;;;;8.7;7.2;;;;;;;12.78;69.41211;937.3059;;;;
2023/06/18 04:51:02;;;;;;;8.7;6.9;;;;;;;12.89;69.30371;937.3501;;;;
2023/06/18 04:53:29;;;;;;;8.9;7.3;;;;;;;12.99;69.2832;937.2636;;;;
2023/06/18 04:55:54;;;;;;;11.6;7.1;;;;;;;12.92;68.6416;937.2414;;;;
2023/06/18 04:58:20;;;;;;;9;7.2;;;;;;;12.85;68.5625;937.243;;;;
2023/06/18 05:00:46;;;;;;;9.4;7.5;;;;;;;12.84;70.13281;937.2414;;;;
2023/06/18 05:03:11;;;;;;;9.2;7.3;;;;;;;13.29;67.99902;937.1864;;;;
2023/06/18 05:05:36;;;;;;;9;7;;;;;;;14.35;65.49316;937.109;;;;
2023/06/18 05:08:02;;;;;;;8.8;5.7;;;;;;;15.1;60.07813;937.0842;;;;
2023/06/18 05:10:28;;;;;;;8.5;6.2;;;;;;;15.32;59.66992;937.0428;;;;
2023/06/18 05:12:54;;;;;;;6.8;5.9;;;;;;;15.75;60.69922;937.0299;;;;
2023/06/18 05:15:26;;;;;;;8.4;6;;;;;;;16.63;57.08105;937.0125;;;;
2023/06/18 05:17:51;;;;;;;6.6;5.4;;;;;;;17.23;54.21582;937.0944;;;;
2023/06/18 05:20:33;;;;;;;8.6;5.8;;;;;;;17.66;52.52734;937.0355;;;;
2023/06/18 05:22:58;;;;;;;8.3;5.3;;;;;;;18.4;51.52246;937.1329;;;;
2023/06/18 05:25:24;;;;;;;6.9;5.3;;;;;;;18.17;51.30957;937.1006;;;;
2023/06/18 05:27:49;;;;;;;6.8;5;;;;;;;18.68;51.78809;936.9919;;;;
2023/06/18 05:30:15;;;;;;;7.1;5.3;;;;;;;18.77;49.90137;937.0059;;;;
2023/06/18 05:32:40;;;;;;;6.6;5.3;;;;;;;19.15;48.01172;937.1068;;;;
2023/06/18 05:35:08;;;;;;;6;5.4;;;;;;;19.75;48.10156;937.0377;;;;
2023/06/18 05:37:33;;;;;;;7.1;5.7;;;;;;;19.99;45.20996;937.1;;;;
2023/06/18 05:40:00;;;;;;;7.4;5.4;;;;;;;20.66;44.00488;937.1276;;;;
2023/06/18 05:42:25;;;;;;;7.6;5.5;;;;;;;21.55;44.02344;937.1208;;;;
2023/06/18 05:44:51;;;;;;;6.1;5.1;;;;;;;22.44;40.94434;937.1476;;;;
2023/06/18 05:47:16;;;;;;;7.6;5.2;;;;;;;22.17;41.22461;937.1589;;;;
2023/06/18 05:49:43;;;;;;;6.3;5;;;;;;;22.36;41.32324;937.14;;;;
2023/06/18 05:52:09;;;;;;;6.9;4.7;;;;;;;22.89;41.17383;937.1178;;;;
2023/06/18 05:54:34;;;;;;;7.6;5;;;;;;;22.75;41.98242;937.1667;;;;
2023/06/18 05:56:59;;;;;;;6.1;4.8;;;;;;;22.92;41.48145;937.1632;;;;
2023/06/18 05:59:25;;;;;;;5.9;4.7;;;;;;;23.37;40.13672;937.2142;;;;
2023/06/18 06:01:50;;;;;;;5.8;4.7;;;;;;;24.22;37.32617;937.158;;;;
2023/06/18 06:04:19;;;;;;;6.1;4.6;;;;;;;24.04;37.44141;937.1722;;;;
2023/06/18 06:06:42;;;;;;;4.8;4.3;;;;;;;24.03;40.14844;937.0873;;;;
2023/06/18 06:09:09;;;;;;;7.6;4.8;;;;;;;24.55;37.87402;937.0953;;;;
2023/06/18 06:11:36;;;;;;;5.2;4.4;;;;;;;25.66;35.30957;937.1161;;;;
2023/06/18 06:13:59;;;;;;;7;4.6;;;;;;;25.43;35.10156;937.0915;;;;
2023/06/18 06:16:24;;;;;;;5;4.5;;;;;;;25.11;35.3125;937.1158;;;;
2023/06/18 06:18:50;;;;;;;5.1;4.4;;;;;;;25.11;35.87988;937.0634;;;;
2023/06/18 06:21:17;;;;;;;5.6;4.9;;;;;;;24.43;36.95605;937.0361;;;;
2023/06/18 06:23:42;;;;;;;7.2;4.8;;;;;;;24.83;38.23828;937.0364;;;;
2023/06/18 06:26:08;;;;;;;6.5;5.1;;;;;;;25.05;36.62988;937.0452;;;;
2023/06/18 06:28:33;;;;;;;6.2;5;;;;;;;25.58;34.67676;936.9999;;;;
2023/06/18 06:31:01;;;;;;;6.7;4.8;;;;;;;25.21;36.76074;936.9601;;;;
2023/06/18 06:33:27;;;;;;;6.5;4.5;;;;;;;24.08;38.94043;936.9885;;;;
2023/06/18 06:35:53;;;;;;;6;5;;;;;;;24.41;37.59082;936.9486;;;;
2023/06/18 06:38:18;;;;;;;7.1;4.4;;;;;;;25.81;36.40723;936.8943;;;;
2023/06/18 06:40:43;;;;;;;5.8;4.2;;;;;;;27.11;34.60547;936.9055;;;;
2023/06/18 06:43:08;;;;;;;5.4;4.4;;;;;;;27.52;31.30273;936.9136;;;;
2023/06/18 06:45:34;;;;;;;4.8;4.3;;;;;;;28.26;32.19727;936.8152;;;;
2023/06/18 06:47:59;;;;;;;5.6;4.6;;;;;;;27.74;32.57617;936.8644;;;;
2023/06/18 06:50:25;;;;;;;6.4;4.9;;;;;;;27.5;32.03711;936.8328;;;;
2023/06/18 06:52:51;;;;;;;6.3;4.9;;;;;;;28.54;29.94629;936.7758;;;;
2023/06/18 06:55:16;;;;;;;6;4.6;;;;;;;28.45;29.96387;936.7395;;;;
2023/06/18 06:57:42;;;;;;;5.9;4.7;;;;;;;27.71;32.87012;936.6319;;;;
2023/06/18 07:00:08;;;;;;;5.5;4.7;;;;;;;27.44;31.23828;936.7054;;;;
2023/06/18 07:02:33;;;;;;;6.1;4.7;;;;;;;27.37;31.65918;936.6792;;;;
2023/06/18 07:04:58;;;;;;;5.1;4.2;;;;;;;28.04;31.49316;936.6609;;;;
2023/06/18 07:07:25;;;;;;;5.1;4.5;;;;;;;28.61;29.92676;936.6543;;;;
2023/06/18 07:09:50;;;;;;;7.3;4.5;;;;;;;28.9;29.69629;936.7003;;;;
2023/06/18 07:12:18;;;;;;;7.2;5;;;;;;;29.33;30.61816;936.6631;;;;
2023/06/18 07:14:43;;;;;;;5.1;4.5;;;;;;;30.18;27.8584;936.6428;;;;
2023/06/18 07:17:10;;;;;;;5;4.4;;;;;;;30.41;27.9209;936.6652;;;;
2023/06/18 07:19:35;;;;;;;6;4.5;;;;;;;29.75;29.84863;936.6144;;;;
2023/06/18 07:22:00;;;;;;;7.1;4.8;;;;;;;30.5;29.4082;936.592;;;;
2023/06/18 07:24:25;;;;;;;5.9;4.2;;;;;;;31.32;28.39551;936.5502;;;;
2023/06/18 07:26:51;;;;;;;5.9;4.4;;;;;;;31.6;25.80273;936.484;;;;
2023/06/18 07:29:16;;;;;;;5.7;4.3;;;;;;;31.28;26.37109;936.5564;;;;
2023/06/18 07:31:43;;;;;;;7.6;5;;;;;;;30.36;27.10547;936.541;;;;
2023/06/18 07:34:08;;;;;;;6.5;4.2;;;;;;;30.62;26.5957;936.4842;;;;
2023/06/18 07:36:33;;;;;;;6.2;4;;;;;;;30.43;27.87402;936.4202;;;;
2023/06/18 07:38:58;;;;;;;4.8;4.3;;;;;;;30.9;27.93945;936.3989;;;;
2023/06/18 07:41:25;;;;;;;5.2;4.5;;;;;;;32.28;26.64551;936.3153;;;;
2023/06/18 07:43:50;;;;;;;5.4;4.5;;;;;;;32.35;23.50781;936.2932;;;;
2023/06/18 07:46:16;;;;;;;8.4;4.2;;;;;;;32.39;25.46387;936.2706;;;;
2023/06/18 07:48:41;;;;;;;4.7;4.3;;;;;;;33.46;25.03125;936.2698;;;;
2023/06/18 07:51:07;;;;;;;5.3;4.4;;;;;;;32.72;23.5498;936.2344;;;;
2023/06/18 07:53:33;;;;;;;4.7;4.1;;;;;;;32.97;24.74023;936.2447;;;;
2023/06/18 07:55:59;;;;;;;4.8;4.3;;;;;;;33.83;24.25781;936.2831;;;;
2023/06/18 07:58:24;;;;;;;5;4.5;;;;;;;33.71;22.77148;936.2087;;;;
2023/06/18 08:00:49;;;;;;;4.6;3.9;;;;;;;33.76;23.07422;936.1954;;;;
2023/06/18 08:03:14;;;;;;;5.8;4.4;;;;;;;34.49;23.88281;936.1303;;;;
2023/06/18 08:05:43;;;;;;;6.8;4.5;;;;;;;34.5;21.60547;936.1761;;;;
2023/06/18 08:08:08;;;;;;;4.9;4.2;;;;;;;35.26;22.54785;936.0912;;;;
2023/06/18 08:10:34;;;;;;;4.4;4;;;;;;;35.1;21.45313;936.1664;;;;
2023/06/18 08:12:59;;;;;;;4.5;4.1;;;;;;;34.67;22.62695;936.149;;;;
2023/06/18 08:15:28;;;;;;;4.6;4.2;;;;;;;33.85;25.87109;936.1239;;;;
2023/06/18 08:17:55;;;;;;;5;4.4;;;;;;;34.41;23.83008;936.1326;;;;
2023/06/18 08:20:20;;;;;;;4.3;3.9;;;;;;;32.86;23.79785;936.0948;;;;
2023/06/18 08:22:46;;;;;;;5.1;4.4;;;;;;;33.43;23.5752;936.0433;;;;
2023/06/18 08:25:11;;;;;;;4.8;4.3;;;;;;;33.45;25.42773;936.055;;;;
2023/06/18 08:27:39;;;;;;;4.4;3.8;;;;;;;33.26;27.11133;936.0882;;;;
2023/06/18 08:30:04;;;;;;;4.5;4;;;;;;;34.6;24.57617;936.0388;;;;
2023/06/18 08:32:33;;;;;;;5.2;4.5;;;;;;;34.53;22.5957;936.0698;;;;
2023/06/18 08:35:00;;;;;;;4.9;3.9;;;;;;;34.78;23.69336;936.0773;;;;
2023/06/18 08:37:23;;;;;;;4.7;4.1;;;;;;;33.92;26.4043;936.0923;;;;
2023/06/18 08:39:49;;;;;;;7.7;4.7;;;;;;;34.5;23.70215;936.0912;;;;
2023/06/18 08:42:19;;;;;;;5.3;4.2;;;;;;;33.65;26.20898;936.0652;;;;
2023/06/18 08:44:39;;;;;;;4.8;4.2;;;;;;;31.96;27.36914;936.0251;;;;
2023/06/18 08:47:04;;;;;;;5.7;4.5;;;;;;;33.04;25.47656;936.04;;;;
2023/06/18 08:49:30;;;;;;;5.3;4.7;;;;;;;31.72;28.9834;936.0044;;;;
2023/06/18 08:51:55;;;;;;;4.4;3.9;;;;;;;32.32;27.67871;936.0229;;;;
2023/06/18 08:54:20;;;;;;;5.9;4.4;;;;;;;32.8;25.19922;935.939;;;;
2023/06/18 08:56:47;;;;;;;4.4;4;;;;;;;32.08;26.52539;936.0115;;;;
2023/06/18 08:59:13;;;;;;;4.8;3.9;;;;;;;32.74;25.29199;935.9968;;;;
2023/06/18 09:01:38;;;;;;;4.4;4;;;;;;;32.1;25.13672;935.9615;;;;
2023/06/18 09:04:03;;;;;;;5.3;4.2;;;;;;;32.52;26.14355;935.9329;;;;
2023/06/18 09:06:28;;;;;;;4.8;4;;;;;;;32.63;24.61426;935.9266;;;;
2023/06/18 09:08:56;;;;;;;5.9;4.4;;;;;;;32.05;25.12207;935.8942;;;;
2023/06/18 09:11:20;;;;;;;5.4;3.6;;;;;;;32.1;27.12598;935.9099;;;;
2023/06/18 09:13:47;;;;;;;7.6;4.4;;;;;;;31.31;26.16992;935.8368;;;;
2023/06/18 09:16:12;;;;;;;4.7;4.1;;;;;;;31.95;25.52344;935.8337;;;;
2023/06/18 09:18:38;;;;;;;6.1;4.6;;;;;;;30.94;28.28809;935.8317;;;;
2023/06/18 09:21:04;;;;;;;5.3;4.1;;;;;;;31.31;29.6875;935.7905;;;;
2023/06/18 09:23:29;;;;;;;5.1;4.3;;;;;;;30.56;28.50293;935.7891;;;;
2023/06/18 09:25:54;;;;;;;5.6;4.6;;;;;;;29.91;28.66504;935.7865;;;;
2023/06/18 09:28:20;;;;;;;7.2;4.4;;;;;;;29.92;30.19336;935.7559;;;;
2023/06/18 09:30:45;;;;;;;4.9;4.4;;;;;;;29.48;31.15234;935.685;;;;
2023/06/18 09:33:10;;;;;;;5.4;4.2;;;;;;;30.32;29.20508;935.7244;;;;
2023/06/18 09:35:37;;;;;;;4.5;4.1;;;;;;;30;28.69531;935.7272;;;;
2023/06/18 09:38:02;;;;;;;6.3;4.2;;;;;;;30.3;27.60352;935.7686;;;;
2023/06/18 09:40:28;;;;;;;5.4;4.5;;;;;;;30.2;30.39063;935.7883;;;;
2023/06/18 09:42:54;;;;;;;6.2;4.8;;;;;;;29.93;29.00098;935.7459;;;;
2023/06/18 09:45:20;;;;;;;9.1;4.8;;;;;;;29.38;31.43164;935.7035;;;;
2023/06/18 09:47:44;;;;;;;5.6;4.7;;;;;;;29.85;30.91602;935.6744;;;;
2023/06/18 09:50:10;;;;;;;5.4;4.8;;;;;;;29.98;29.8623;935.5751;;;;
2023/06/18 09:52:36;;;;;;;5.4;4.6;;;;;;;30.17;27.63184;935.6903;;;;
2023/06/18 09:55:01;;;;;;;4.8;4.1;;;;;;;29.82;30.98535;935.6926;;;;
2023/06/18 09:57:26;;;;;;;4.8;4.3;;;;;;;29.17;31.07227;935.5926;;;;
2023/06/18 09:59:51;;;;;;;5.5;4.4;;;;;;;29.14;32.0459;935.6136;;;;
2023/06/18 10:02:19;;;;;;;5.9;4.8;;;;;;;29.29;31.71191;935.6125;;;;
2023/06/18 10:04:45;;;;;;;4.9;4.4;;;;;;;29.61;29.59961;935.6014;;;;
2023/06/18 10:07:13;;;;;;;6.4;4.9;;;;;;;29.66;30.31836;935.656;;;;
2023/06/18 10:09:35;;;;;;;5.4;4.7;;;;;;;29.57;31.52832;935.6;;;;
2023/06/18 10:12:00;;;;;;;5.9;5.3;;;;;;;29.37;32.72949;935.5909;;;;
2023/06/18 10:14:25;;;;;;;5.2;4.5;;;;;;;29.58;29.66992;935.5386;;;;
2023/06/18 10:16:52;;;;;;;5.6;4.6;;;;;;;29.65;28.73242;935.5625;;;;
2023/06/18 10:19:17;;;;;;;5.4;4.4;;;;;;;29.34;30.79688;935.5347;;;;
2023/06/18 10:21:42;;;;;;;6.3;4.7;;;;;;;29.26;30.0293;935.551;;;;
2023/06/18 10:24:07;;;;;;;5.6;4.6;;;;;;;29.26;30.62598;935.5539;;;;
2023/06/18 10:26:32;;;;;;;5.6;4.7;;;;;;;29.37;30.31152;935.5748;;;;
2023/06/18 10:28:57;;;;;;;5.4;4.8;;;;;;;29.26;30.08887;935.5008;;;;
2023/06/18 10:31:23;;;;;;;5.6;4.7;;;;;;;29.5;29.85547;935.4832;;;;
2023/06/18 10:33:48;;;;;;;6.9;4.2;;;;;;;29.46;29.56641;935.4517;;;;
2023/06/18 10:36:13;;;;;;;8;4.4;;;;;;;29.45;30.20898;935.4347;;;;
2023/06/18 10:38:38;;;;;;;5.4;4.5;;;;;;;29.28;30.80566;935.4945;;;;
2023/06/18 10:41:04;;;;;;;5.4;4.4;;;;;;;29.45;29.28027;935.4587;;;;
2023/06/18 10:43:29;;;;;;;9.6;5.1;;;;;;;29.62;30.81738;935.4363;;;;
2023/06/18 10:45:54;;;;;;;7.2;4.7;;;;;;;29.41;31.15918;935.3739;;;;
2023/06/18 10:48:22;;;;;;;5.5;4.5;;;;;;;29.67;30.6416;935.4324;;;;
2023/06/18 10:50:45;;;;;;;9.3;5.2;;;;;;;29.28;32.40137;935.2858;;;;
2023/06/18 10:53:10;;;;;;;7.2;4.8;;;;;;;29.38;31.68164;935.358;;;;
2023/06/18 10:55:35;;;;;;;5.8;4.6;;;;;;;29.58;31.85059;935.2989;;;;
2023/06/18 10:58:00;;;;;;;6.2;5;;;;;;;29.44;32.18652;935.3019;;;;
2023/06/18 11:00:29;;;;;;;5.7;4.5;;;;;;;29.91;30.40625;935.2708;;;;
2023/06/18 11:02:52;;;;;;;7;4.6;;;;;;;29.5;29.50977;935.1883;;;;
2023/06/18 11:05:21;;;;;;;6.9;4.7;;;;;;;29.41;31.75586;935.2302;;;;
2023/06/18 11:07:46;;;;;;;5.4;4.5;;;;;;;29.61;31.41211;935.2263;;;;
2023/06/18 11:10:18;;;;;;;6.2;4.9;;;;;;;29.5;31.16602;935.2182;;;;
2023/06/18 11:12:43;;;;;;;6.6;5;;;;;;;29.59;29.83789;935.27;;;;
2023/06/18 11:15:08;;;;;;;6;4.9;;;;;;;29.63;31.36523;935.2784;;;;
2023/06/18 11:17:33;;;;;;;5.5;4.8;;;;;;;29.89;30.10742;935.2282;;;;
2023/06/18 11:19:58;;;;;;;5.2;4.5;;;;;;;29.37;31.76465;935.165;;;;
2023/06/18 11:22:25;;;;;;;7.1;4.7;;;;;;;29.32;31.91699;935.1478;;;;
2023/06/18 11:24:50;;;;;;;6;5;;;;;;;29.59;31.35059;935.0792;;;;
2023/06/18 11:27:15;;;;;;;7.3;5.1;;;;;;;29.46;32.11719;935.0706;;;;
2023/06/18 11:29:40;;;;;;;8;4.6;;;;;;;29.71;31.77734;935.0372;;;;
2023/06/18 11:32:05;;;;;;;6;4.7;;;;;;;30.05;29.99902;934.9998;;;;
2023/06/18 11:34:30;;;;;;;5.9;4.9;;;;;;;30.01;30.33008;935.015;;;;
2023/06/18 11:36:55;;;;;;;5;4.5;;;;;;;29.47;32.06934;935.0366;;;;
2023/06/18 11:39:20;;;;;;;7.6;4.9;;;;;;;29.77;30.91113;934.981;;;;
2023/06/18 11:41:47;;;;;;;6.1;5.1;;;;;;;29.9;29.60645;934.9897;;;;
2023/06/18 11:44:13;;;;;;;8.4;4.8;;;;;;;29.86;31.42969;934.9824;;;;
2023/06/18 11:46:38;;;;;;;5.7;4.7;;;;;;;30.27;30.03711;934.9554;;;;
2023/06/18 11:49:05;;;;;;;5;4.5;;;;;;;29.75;31.40918;934.9526;;;;
2023/06/18 11:51:30;;;;;;;6;4.9;;;;;;;30.02;30.62891;934.9587;;;;
2023/06/18 11:53:56;;;;;;;6.1;4.9;;;;;;;30.43;31.03906;934.9213;;;;
2023/06/18 11:56:21;;;;;;;6.6;4.6;;;;;;;30.17;31.66602;934.86;;;;
2023/06/18 11:58:47;;;;;;;6.8;5.3;;;;;;;29.96;30.58984;934.7929;;;;
2023/06/18 12:01:12;;;;;;;7;5.3;;;;;;;29.79;31.56836;934.8805;;;;
2023/06/18 12:03:38;;;;;;;7.8;5;;;;;;;29.22;32.38574;934.8917;;;;
2023/06/18 12:06:03;;;;;;;7.7;5.1;;;;;;;29.58;30.52832;934.8325;;;;
2023/06/18 12:08:28;;;;;;;5.4;4.9;;;;;;;30.04;31.69238;934.8491;;;;
2023/06/18 12:10:55;;;;;;;6.4;5;;;;;;;30.17;30.38867;934.834;;;;
2023/06/18 12:13:20;;;;;;;10;6.1;;;;;;;30.11;31.13672;934.8059;;;;
2023/06/18 12:15:49;;;;;;;5.1;4.6;;;;;;;30.05;32.67188;934.7715;;;;
2023/06/18 12:18:14;;;;;;;14.1;5.1;;;;;;;30;31.37988;934.7745;;;;
2023/06/18 12:20:39;;;;;;;7.9;5.1;;;;;;;30.01;31.67871;934.76;;;;
2023/06/18 12:23:05;;;;;;;7.4;4.9;;;;;;;30.25;31.33691;934.7299;;;;
2023/06/18 12:25:31;;;;;;;6;5.4;;;;;;;30.48;30.43359;934.6822;;;;
2023/06/18 12:27:56;;;;;;;7.4;4.9;;;;;;;30.19;31.58496;934.6521;;;;
2023/06/18 12:30:21;;;;;;;7.2;4.8;;;;;;;29.2;32.6582;934.6742;;;;
2023/06/18 12:32:46;;;;;;;7.2;5.5;;;;;;;29.48;32.29688;934.5938;;;;
2023/06/18 12:35:12;;;;;;;6.4;5.4;;;;;;;29.88;31.49023;934.58;;;;
2023/06/18 12:37:41;;;;;;;6.5;5.3;;;;;;;30.15;31.21094;934.4967;;;;
2023/06/18 12:40:05;;;;;;;8.2;5.3;;;;;;;30.67;30.43359;934.5396;;;;
2023/06/18 12:42:33;;;;;;;6.1;4.6;;;;;;;30.97;30.14355;934.5217;;;;
2023/06/18 12:44:58;;;;;;;7.7;5.4;;;;;;;30.66;30.03906;934.457;;;;
2023/06/18 12:47:24;;;;;;;7.1;5.3;;;;;;;30.49;30.24316;934.493;;;;
2023/06/18 12:49:49;;;;;;;7;5.2;;;;;;;30.41;29.95117;934.4807;;;;
2023/06/18 12:52:14;;;;;;;7.3;5.3;;;;;;;30.28;30.83789;934.4381;;;;
2023/06/18 12:54:39;;;;;;;6.7;4.9;;;;;;;30.07;30.83594;934.4327;;;;
2023/06/18 12:57:04;;;;;;;9.1;5.3;;;;;;;29.41;31.94629;934.4241;;;;
2023/06/18 12:59:29;;;;;;;8;5.1;;;;;;;28.81;33.22461;934.4612;;;;
2023/06/18 13:01:56;;;;;;;7.1;5.3;;;;;;;28.94;33.25879;934.3795;;;;
2023/06/18 13:04:21;;;;;;;7.4;5.3;;;;;;;28.96;33.81836;934.3381;;;;
2023/06/18 13:06:49;;;;;;;6;5;;;;;;;28.85;33.7998;934.408;;;;
2023/06/18 13:09:13;;;;;;;6.7;5.2;;;;;;;29.06;34.19531;934.3645;;;;
2023/06/18 13:11:39;;;;;;;7;5.2;;;;;;;28.94;33.76953;934.3083;;;;
2023/06/18 13:14:04;;;;;;;8.6;5.5;;;;;;;29.34;33.1084;934.2888;;;;
2023/06/18 13:16:33;;;;;;;6.8;5;;;;;;;29.68;32.47852;934.2789;;;;
2023/06/18 13:18:57;;;;;;;6.7;5.3;;;;;;;30.14;31.20996;934.2455;;;;
2023/06/18 13:21:25;;;;;;;6.6;5;;;;;;;30.2;31;934.2469;;;;
2023/06/18 13:23:50;;;;;;;5.3;4.6;;;;;;;29.68;33.33691;934.2311;;;;
2023/06/18 13:26:17;;;;;;;6.2;5;;;;;;;29.75;32.29199;934.1981;;;;
2023/06/18 13:28:42;;;;;;;6.9;5.2;;;;;;;29.66;31.49902;934.1714;;;;
2023/06/18 13:31:08;;;;;;;5.7;5.1;;;;;;;29.86;31.42969;934.2231;;;;
2023/06/18 13:33:33;;;;;;;6.6;5.2;;;;;;;30.14;30.9248;934.2642;;;;
2023/06/18 13:35:58;;;;;;;6;5.1;;;;;;;30.23;30.73828;934.2562;;;;
2023/06/18 13:38:24;;;;;;;6.9;5.1;;;;;;;30.49;30.76953;934.2411;;;;
2023/06/18 13:40:51;;;;;;;7;5.4;;;;;;;30.09;31.74414;934.2249;;;;
2023/06/18 13:43:15;;;;;;;6.8;5.5;;;;;;;29.64;33.83496;934.1978;;;;
2023/06/18 13:45:42;;;;;;;5.9;5.3;;;;;;;29.42;34.25879;934.2518;;;;
2023/06/18 13:48:08;;;;;;;5.7;5.1;;;;;;;29.7;32.46777;934.2355;;;;
2023/06/18 13:50:33;;;;;;;7.4;5;;;;;;;30.08;31.73145;934.2519;;;;
2023/06/18 13:52:58;;;;;;;16.6;5.6;;;;;;;30.14;31.71191;934.2894;;;;
2023/06/18 13:55:25;;;;;;;11;5.2;;;;;;;30.25;31.98145;934.3033;;;;
2023/06/18 13:57:50;;;;;;;5.7;5;;;;;;;30.02;32.32324;934.3132;;;;
2023/06/18 14:00:15;;;;;;;5.8;4.9;;;;;;;29.87;31.39453;934.2661;;;;
2023/06/18 14:02:40;;;;;;;6.5;5.3;;;;;;;30.02;31.9541;934.2856;;;;
2023/06/18 14:05:10;;;;;;;7.6;5;;;;;;;29.93;32.31738;934.2925;;;;
2023/06/18 14:07:35;;;;;;;7.1;5.2;;;;;;;29.7;33.2793;934.2456;;;;
2023/06/18 14:10:01;;;;;;;8.5;5.1;;;;;;;29.45;32.63965;934.2608;;;;
2023/06/18 14:12:26;;;;;;;6.6;5.6;;;;;;;29.34;33.93164;934.2456;;;;
2023/06/18 14:14:53;;;;;;;6.1;5.3;;;;;;;29.38;31.9082;934.3003;;;;
2023/06/18 14:17:17;;;;;;;7;5.3;;;;;;;29.48;32.54785;934.1509;;;;